Time;durP1;ratioP1;P1;durP2;ratioP2;P2;SDS_P1;SDS_P2;PMS_P1;PMS_P2;Temp;Humidity;BMP_temperature;BMP_pressure;BME280_temperature;BME280_humidity;BME280_pressure;Samples;Min_cycle;Max_cycle;Signal;HPM_P1;HPM_P2
2022/08/12 00:45:02;;;;;;;4.45;0.65;;;20.10;61.90;;;18.87;50.95;100305.09;10326746;28;96570;-84
2022/08/12 00:50:11;;;;;;;1.35;0.80;;;20.10;62.20;;;18.87;50.67;100304.28;10333687;28;96571;-84
2022/08/12 00:55:15;;;;;;;1.40;0.80;;;20.10;62.20;;;18.86;50.90;100308.84;10331803;28;97045;-84
2022/08/12 01:00:23;;;;;;;3.42;0.52;;;20.10;62.30;;;18.79;51.46;100300.00;10307384;28;96689;-85
2022/08/12 01:16:10;;;;;;;1.20;0.73;;;19.80;63.00;;;18.52;51.84;100311.94;10327586;28;96539;-85
2022/08/12 01:21:26;;;;;;;2.55;0.60;;;19.70;63.20;;;18.40;52.03;100309.13;10302572;28;96784;-85
2022/08/12 01:26:33;;;;;;;1.98;0.73;;;19.70;63.40;;;18.37;52.07;100301.50;10333667;28;96650;-84
2022/08/12 01:31:38;;;;;;;0.70;0.63;;;19.60;63.50;;;18.31;52.03;100303.19;10301123;28;96631;-84
2022/08/12 01:36:49;;;;;;;1.33;0.80;;;19.60;63.70;;;18.23;52.50;100306.09;10304329;28;98781;-84
2022/08/12 01:41:58;;;;;;;1.60;0.82;;;19.50;63.80;;;18.16;52.73;100302.63;10306516;28;96621;-84
2022/08/12 01:47:22;;;;;;;0.77;0.70;;;19.40;64.00;;;18.08;52.92;100305.56;10310347;28;96680;-85
2022/08/12 01:52:35;;;;;;;1.30;0.80;;;19.30;64.30;;;17.95;53.13;100287.66;10313792;28;96760;-84
2022/08/12 01:57:46;;;;;;;2.35;0.80;;;19.20;64.50;;;17.85;53.72;100288.09;10330528;28;96734;-85
2022/08/12 02:14:33;;;;;;;2.72;0.90;;;19.00;65.10;;;17.60;54.49;100279.06;10312234;28;96511;-85
2022/08/12 02:20:21;;;;;;;1.05;0.90;;;18.90;65.50;;;17.53;54.41;100267.53;10297122;28;96726;-84
2022/08/12 02:25:40;;;;;;;1.23;0.93;;;18.80;65.50;;;17.51;54.66;100262.38;10308802;28;96665;-84
2022/08/12 02:30:43;;;;;;;1.13;1.00;;;18.80;65.70;;;17.47;54.51;100260.31;10308792;28;98134;-84
2022/08/12 02:35:46;;;;;;;1.63;0.70;;;18.70;65.70;;;17.41;54.54;100255.78;10316167;28;96577;-84
2022/08/12 02:40:54;;;;;;;1.30;0.82;;;18.70;65.90;;;17.34;54.79;100253.94;10328595;28;97184;-84
2022/08/12 02:46:14;;;;;;;1.00;0.70;;;18.60;66.10;;;17.29;55.00;100255.59;10295578;28;97353;-84
2022/08/12 02:51:23;;;;;;;1.98;0.90;;;18.60;66.30;;;17.22;55.11;100252.94;10311802;28;97052;-84
2022/08/12 02:56:27;;;;;;;2.75;0.90;;;18.50;66.40;;;17.10;55.12;100252.75;10313014;28;98302;-84
2022/08/12 03:01:33;;;;;;;1.40;0.95;;;18.40;66.60;;;17.06;55.67;100248.81;10303178;28;96619;-85
2022/08/12 03:06:50;;;;;;;2.10;1.85;;;18.40;66.80;;;17.00;55.85;100246.16;10356023;28;98256;-85
2022/08/12 03:12:04;;;;;;;1.42;1.23;;;18.30;67.00;;;16.95;55.91;100236.03;10300242;28;96485;-85
2022/08/12 03:17:28;;;;;;;2.22;1.20;;;18.20;67.20;;;16.91;56.25;100245.50;10310453;28;96771;-85
2022/08/12 03:22:37;;;;;;;3.30;0.90;;;18.20;67.40;;;16.88;56.28;100243.25;10323952;28;96729;-85
2022/08/12 03:27:54;;;;;;;0.93;0.75;;;18.20;67.50;;;16.81;56.33;100251.31;10303963;28;96729;-85
2022/08/12 03:33:01;;;;;;;2.85;1.10;;;18.10;67.60;;;16.75;56.47;100251.34;10329021;28;97252;-85
2022/08/12 03:38:08;;;;;;;3.10;1.20;;;18.00;67.80;;;16.69;56.71;100252.13;10314369;28;96593;-85
2022/08/12 04:04:57;;;;;;;1.48;1.23;;;17.70;69.30;;;16.38;58.35;100264.28;10336909;28;96619;-82
2022/08/12 04:10:01;;;;;;;3.90;1.17;;;17.70;69.40;;;16.42;58.50;100270.88;10334424;28;97113;-82
2022/08/12 04:15:05;;;;;;;2.65;1.20;;;17.70;69.50;;;16.52;58.13;100268.63;10317563;28;97167;-80
2022/08/12 04:20:12;;;;;;;3.83;0.90;;;17.80;69.60;;;16.58;58.36;100269.66;10310237;28;96700;-80
2022/08/12 04:25:15;;;;;;;1.70;1.00;;;17.90;69.60;;;16.65;58.00;100273.16;10336698;28;96622;-80
2022/08/12 04:30:18;;;;;;;3.38;0.90;;;17.90;69.40;;;16.73;57.96;100281.06;10306228;28;96653;-80
2022/08/12 04:35:36;;;;;;;4.00;1.45;;;18.00;69.30;;;16.76;58.08;100275.25;10296937;28;96672;-80
2022/08/12 04:40:39;;;;;;;2.58;0.95;;;18.10;69.30;;;16.87;58.20;100284.56;10334359;28;99494;-81
2022/08/12 04:45:42;;;;;;;3.08;1.17;;;18.10;69.30;;;16.96;58.81;100285.16;10329471;28;96590;-80
2022/08/12 04:50:45;;;;;;;2.90;1.10;;;18.30;69.80;;;17.04;59.30;100287.66;10342511;28;97225;-80
2022/08/12 04:55:51;;;;;;;2.55;1.20;;;18.30;70.30;;;17.13;59.24;100287.22;10335409;28;98573;-81
2022/08/12 05:00:54;;;;;;;2.60;1.08;;;18.40;70.50;;;17.24;59.36;100293.81;10357004;28;96818;-80
2022/08/12 05:05:57;;;;;;;2.58;1.30;;;18.40;70.60;;;17.35;59.40;100289.69;10337817;28;96751;-80
2022/08/12 05:11:00;;;;;;;3.50;1.50;;;18.50;70.70;;;17.51;59.09;100296.44;10314086;28;96711;-79
2022/08/12 05:16:09;;;;;;;2.67;1.13;;;18.70;70.60;;;17.68;59.20;100297.63;10325769;28;98282;-92
2022/08/12 05:21:15;;;;;;;5.25;1.23;;;18.90;70.70;;;17.84;58.84;100289.13;10317871;28;96814;-93
2022/08/12 05:26:19;;;;;;;4.43;1.20;;;19.00;70.40;;;18.11;58.78;100300.63;10334979;28;96655;-92
2022/08/12 05:31:22;;;;;;;1.83;1.13;;;19.30;70.10;;;18.40;58.19;100304.56;10320907;28;98427;-82
2022/08/12 05:36:47;;;;;;;2.63;1.50;;;19.60;70.00;;;18.67;58.08;100296.34;10349513;28;98115;-94
2022/08/12 05:41:50;;;;;;;3.75;1.30;;;19.80;69.80;;;18.85;56.13;100296.41;10308133;28;96685;-95
2022/08/12 05:46:53;;;;;;;3.67;1.63;;;20.00;68.60;;;19.03;54.34;100292.13;10303022;28;96913;-91
2022/08/12 05:51:56;;;;;;;4.50;1.38;;;20.20;67.50;;;19.25;53.92;100304.97;10321931;28;96824;-94
2022/08/12 05:56:59;;;;;;;7.25;1.45;;;20.50;67.00;;;19.50;53.20;100294.16;10297728;28;96424;-92
2022/08/12 06:02:06;;;;;;;4.13;1.30;;;20.70;66.10;;;19.77;52.17;100293.88;10327284;28;97450;-94
2022/08/12 06:07:14;;;;;;;1.60;1.15;;;21.00;65.30;;;19.99;51.82;100297.75;10319734;28;96428;-93
2022/08/12 06:12:37;;;;;;;1.55;1.02;;;21.20;64.50;;;20.17;51.03;100296.06;10318479;28;98079;-93
2022/08/12 06:17:41;;;;;;;2.53;0.95;;;21.40;64.00;;;20.39;50.85;100308.00;10329965;28;96588;-92
2022/08/12 06:22:49;;;;;;;3.60;1.20;;;21.60;63.60;;;20.56;50.50;100300.91;10334983;28;96417;-93
2022/08/12 06:27:58;;;;;;;3.95;1.40;;;21.80;63.30;;;20.65;48.99;100300.59;10307459;28;96684;-92
2022/08/12 06:33:10;;;;;;;1.75;1.30;;;21.90;62.00;;;20.76;48.48;100297.09;10282715;28;96888;-93
2022/08/12 06:38:30;;;;;;;3.25;1.20;;;22.00;61.40;;;20.96;48.62;100294.06;10307396;28;96856;-94
2022/08/12 06:43:36;;;;;;;1.70;1.10;;;22.20;61.40;;;21.18;47.98;100303.25;10352087;28;96468;-95
2022/08/12 06:49:05;;;;;;;2.67;1.55;;;22.40;60.80;;;21.35;47.15;100296.09;10340460;28;97260;-91
2022/08/12 06:54:10;;;;;;;1.25;1.15;;;22.60;60.20;;;21.51;47.55;100289.13;10335075;28;96455;-94
2022/08/12 06:59:14;;;;;;;1.95;1.40;;;22.70;60.10;;;21.63;46.70;100281.81;10318123;28;96512;-93
2022/08/12 07:04:19;;;;;;;2.65;1.20;;;22.90;59.40;;;21.77;46.03;100286.97;10293352;28;97245;-93
2022/08/12 07:09:41;;;;;;;3.25;1.10;;;23.00;58.90;;;21.98;46.22;100270.09;10332851;28;97874;-94
2022/08/12 07:15:05;;;;;;;4.75;1.20;;;23.20;58.90;;;22.24;45.55;100278.72;10375265;28;96516;-93
2022/08/12 07:20:10;;;;;;;4.55;1.48;;;23.40;58.50;;;22.50;45.17;100269.19;10337684;28;96526;-93
2022/08/12 07:25:42;;;;;;;1.73;1.40;;;23.70;58.40;;;22.69;44.08;100278.72;10325514;28;96466;-94
2022/08/12 07:30:49;;;;;;;2.90;1.40;;;23.90;57.10;;;22.88;42.91;100280.13;10330160;28;96595;-96
2022/08/12 07:35:52;;;;;;;2.75;1.33;;;24.10;56.50;;;23.08;43.20;100286.94;10310071;28;96584;-94
2022/08/12 07:41:02;;;;;;;1.98;1.50;;;24.30;56.20;;;23.26;42.49;100283.94;10341950;28;96412;-95
2022/08/12 07:46:17;;;;;;;1.83;1.38;;;24.50;56.00;;;23.45;42.04;100290.75;10341218;28;96752;-94
2022/08/12 07:51:28;;;;;;;2.22;1.50;;;24.60;55.40;;;23.60;42.00;100283.88;10328366;28;96460;-94
2022/08/12 07:56:41;;;;;;;2.53;1.45;;;24.80;55.30;;;23.72;41.35;100285.41;10334161;28;96926;-96
2022/08/12 08:01:44;;;;;;;2.90;1.50;;;24.90;54.90;;;23.83;41.12;100278.22;10316835;28;96484;-93
2022/08/12 08:06:51;;;;;;;2.10;1.23;;;25.10;54.60;;;24.00;41.15;100278.16;10316971;28;97341;-94
2022/08/12 08:17:22;;;;;;;1.48;1.30;;;25.40;54.40;;;24.14;40.46;100273.13;10340148;28;96449;-96
2022/08/12 08:22:33;;;;;;;4.95;1.30;;;25.40;54.00;;;24.24;40.50;100271.34;10331130;28;96469;-96
2022/08/12 08:27:53;;;;;;;1.80;1.40;;;25.50;54.00;;;24.35;40.16;100269.59;10310843;28;96467;-96
2022/08/12 08:38:17;;;;;;;2.22;1.10;;;25.80;54.30;;;24.74;40.49;100256.59;10294640;28;96793;-87
2022/08/12 08:43:36;;;;;;;2.13;1.40;;;25.90;54.10;;;24.92;40.07;100260.81;10304015;28;97085;-87
2022/08/12 08:48:46;;;;;;;2.03;1.50;;;26.10;53.70;;;25.02;39.81;100254.66;10283163;28;96546;-87
2022/08/12 08:53:49;;;;;;;2.17;1.33;;;26.20;53.60;;;25.05;39.40;100251.41;10297002;28;96451;-87
2022/08/12 08:58:56;;;;;;;1.92;1.48;;;26.20;53.40;;;25.13;39.15;100242.78;10317960;28;96621;-88
2022/08/12 09:03:59;;;;;;;2.63;1.63;;;26.30;52.80;;;25.31;38.84;100244.25;10281460;28;96408;-88
2022/08/12 09:09:22;;;;;;;4.93;1.67;;;26.50;52.80;;;25.51;37.89;100243.53;10274226;28;98732;-87
2022/08/12 09:14:25;;;;;;;1.65;1.30;;;26.70;52.50;;;25.60;37.70;100226.41;10310558;28;97388;-86
2022/08/12 09:19:31;;;;;;;2.25;1.48;;;26.80;52.00;;;25.67;37.57;100220.72;10291551;28;96540;-87
2022/08/12 09:24:35;;;;;;;1.95;1.50;;;26.90;51.50;;;25.79;36.97;100226.78;10258616;28;96827;-87
2022/08/12 09:29:38;;;;;;;2.13;1.40;;;27.00;51.20;;;25.89;36.94;100218.63;10295425;28;96650;-87
2022/08/12 09:35:02;;;;;;;4.40;1.40;;;27.20;51.20;;;26.09;36.73;100211.63;10288385;28;96719;-86
2022/08/12 09:40:06;;;;;;;1.73;1.30;;;27.40;50.90;;;26.33;36.98;100207.28;10290871;28;96637;-87
2022/08/12 09:45:31;;;;;;;1.50;1.40;;;27.60;50.90;;;26.56;35.97;100199.66;10289771;28;96525;-87
2022/08/12 09:50:54;;;;;;;2.40;1.88;;;27.80;50.30;;;26.81;34.70;100202.38;10320656;28;96588;-86
2022/08/12 09:56:05;;;;;;;1.90;1.40;;;28.10;49.50;;;26.85;34.94;100194.44;10279966;28;96621;-87
2022/08/12 10:01:28;;;;;;;1.88;1.30;;;28.10;49.30;;;27.06;35.30;100187.06;10302321;28;96573;-86
2022/08/12 10:06:51;;;;;;;2.90;1.58;;;28.30;49.50;;;27.19;34.94;100190.03;10269408;28;96570;-87
2022/08/12 10:17:34;;;;;;;2.85;1.33;;;28.60;49.10;;;27.39;33.96;100186.38;10284933;28;96644;-86
2022/08/12 10:22:58;;;;;;;1.95;1.27;;;28.70;48.40;;;27.50;34.28;100180.91;10277793;28;97317;-87
2022/08/12 10:33:29;;;;;;;2.47;1.40;;;28.90;48.10;;;27.44;33.88;100172.72;10303356;28;96782;-87
2022/08/12 10:38:33;;;;;;;1.52;1.20;;;28.80;48.20;;;27.50;34.42;100167.25;10291000;28;96604;-86
2022/08/12 10:43:45;;;;;;;1.33;1.23;;;28.80;48.50;;;27.69;33.30;100165.53;10290588;28;96511;-86
2022/08/12 10:48:59;;;;;;;2.10;1.40;;;29.00;48.10;;;27.77;34.11;100167.69;10292208;28;96371;-85
2022/08/12 10:54:27;;;;;;;1.88;1.38;;;29.10;48.40;;;27.99;33.28;100153.59;10242916;28;96581;-86
2022/08/12 10:59:30;;;;;;;2.28;1.50;;;29.20;48.70;;;27.65;33.06;100150.78;10246632;28;96861;-86
2022/08/12 11:04:57;;;;;;;1.15;1.05;;;29.10;47.30;;;27.61;33.24;100147.81;10290890;28;96645;-86
2022/08/12 11:10:20;;;;;;;1.83;1.25;;;28.90;47.50;;;27.86;32.79;100155.06;10265175;28;96756;-85
2022/08/12 11:15:28;;;;;;;3.83;1.20;;;29.10;47.60;;;27.91;31.22;100149.56;10292542;28;96583;-85
2022/08/12 11:20:53;;;;;;;2.85;1.27;;;29.20;46.10;;;27.70;32.14;100157.06;10275803;28;96530;-86
2022/08/12 11:25:59;;;;;;;1.30;1.10;;;29.10;46.20;;;27.51;32.48;100164.22;10258961;28;97420;-85
2022/08/12 11:31:09;;;;;;;2.37;1.23;;;28.90;46.50;;;27.43;33.53;100156.66;10264073;28;96965;-85
2022/08/12 11:36:18;;;;;;;1.77;1.10;;;28.70;47.70;;;27.31;33.30;100167.06;10233712;28;96808;-86
2022/08/12 11:41:24;;;;;;;2.90;1.10;;;28.60;47.40;;;27.07;33.42;100155.97;10238852;28;97007;-85
2022/08/12 11:46:35;;;;;;;2.85;1.20;;;28.40;47.60;;;26.91;34.26;100147.81;10238881;28;96644;-85
2022/08/12 11:51:39;;;;;;;2.03;0.98;;;28.20;48.00;;;27.06;34.78;100149.72;10249212;28;96594;-85
2022/08/12 11:56:41;;;;;;;3.08;1.60;;;28.30;48.70;;;27.26;34.21;100150.72;10210255;28;96639;-84
2022/08/12 12:02:02;;;;;;;1.70;1.17;;;28.50;48.30;;;27.34;34.11;100150.94;10250409;28;98440;-85
2022/08/12 12:07:07;;;;;;;2.15;1.13;;;28.70;48.10;;;27.44;34.01;100142.72;10251800;28;97011;-84
2022/08/12 12:12:13;;;;;;;2.45;1.00;;;28.70;48.10;;;27.54;34.32;100146.50;10259728;28;96713;-84
2022/08/12 12:17:17;;;;;;;3.47;1.40;;;28.80;48.60;;;27.47;34.91;100133.16;10215962;28;96644;-85
2022/08/12 12:22:20;;;;;;;2.25;1.30;;;28.80;48.70;;;27.76;34.47;100119.63;10266481;28;96696;-85
2022/08/12 12:27:25;;;;;;;2.28;1.25;;;29.20;48.50;;;28.30;33.26;100129.56;10261201;28;96887;-85
2022/08/12 12:32:48;;;;;;;1.38;1.08;;;30.00;47.40;;;28.61;32.48;100110.16;10270697;28;96992;-85
2022/08/12 12:37:58;;;;;;;1.48;1.00;;;30.60;46.50;;;28.79;31.51;100123.13;10241309;28;96778;-84
2022/08/12 12:43:14;;;;;;;3.90;1.13;;;30.90;45.60;;;29.26;31.56;100107.78;10247874;28;96909;-86
2022/08/12 12:48:19;;;;;;;1.98;1.20;;;31.30;45.70;;;29.51;30.81;100095.69;10253695;28;97242;-85
2022/08/12 12:53:22;;;;;;;3.88;1.35;;;31.60;45.10;;;29.43;30.72;100091.66;10296834;28;97654;-85
2022/08/12 12:58:50;;;;;;;3.30;1.10;;;31.50;44.60;;;29.54;30.68;100078.69;10268332;28;98426;-85
2022/08/12 13:03:56;;;;;;;1.98;1.05;;;31.50;44.50;;;30.07;30.14;100065.50;10216486;28;97043;-85
2022/08/12 13:09:04;;;;;;;2.13;1.40;;;31.80;44.80;;;30.24;29.22;100066.88;10257109;28;97960;-86
2022/08/12 13:14:14;;;;;;;2.50;1.02;;;32.00;43.70;;;30.22;29.21;100061.69;10267152;28;96803;-86
2022/08/12 13:19:35;;;;;;;0.93;0.90;;;31.90;43.70;;;30.13;29.20;100065.44;10255125;28;97670;-85
2022/08/12 13:24:53;;;;;;;4.07;1.20;;;31.70;43.70;;;29.93;29.69;100061.91;10229010;28;96483;-86
2022/08/12 13:29:58;;;;;;;1.88;1.17;;;31.40;44.10;;;29.86;29.80;100047.75;10264048;28;96569;-86
2022/08/12 13:35:06;;;;;;;4.32;1.05;;;31.30;44.30;;;29.87;30.00;100041.19;10270798;28;96692;-85
2022/08/12 13:40:32;;;;;;;2.65;1.15;;;31.30;44.80;;;29.69;28.92;100045.59;10292082;28;96600;-85
2022/08/12 13:45:35;;;;;;;2.08;1.10;;;31.20;43.70;;;29.72;28.69;100034.03;10258887;28;97293;-85
2022/08/12 13:50:42;;;;;;;2.08;1.10;;;31.20;43.50;;;29.79;27.20;100039.13;10295663;28;96602;-86
2022/08/12 13:55:48;;;;;;;3.33;0.88;;;31.30;42.80;;;29.56;27.80;100038.94;10265684;28;96638;-86
2022/08/12 14:01:04;;;;;;;2.15;1.10;;;31.10;42.70;;;29.46;28.28;100039.09;10281398;28;96864;-86
2022/08/12 14:06:08;;;;;;;1.20;0.93;;;30.90;42.80;;;29.64;28.33;100028.44;10250418;28;97225;-85
2022/08/12 14:11:18;;;;;;;2.47;0.90;;;31.00;42.90;;;29.91;28.05;100022.22;10245296;28;97466;-86
2022/08/12 14:16:30;;;;;;;3.63;1.20;;;31.30;42.80;;;30.04;27.87;100019.50;10278905;28;98403;-86
2022/08/12 14:21:53;;;;;;;1.85;0.90;;;31.40;42.60;;;30.22;28.03;100006.88;10277464;28;96771;-86
2022/08/12 14:27:03;;;;;;;1.30;1.00;;;31.60;42.90;;;30.20;28.22;100005.56;10283317;28;98432;-87
2022/08/12 14:32:12;;;;;;;2.15;1.20;;;31.60;43.00;;;30.33;28.17;100007.50;10261852;28;97614;-85
2022/08/12 14:37:21;;;;;;;2.10;1.05;;;31.70;42.90;;;30.32;28.14;100003.13;10289571;28;97125;-84
2022/08/12 14:42:44;;;;;;;1.42;0.95;;;31.80;42.70;;;30.71;28.14;99988.09;10273135;28;96806;-85
2022/08/12 14:47:52;;;;;;;2.30;1.13;;;31.90;43.00;;;30.84;27.45;99979.06;10289847;28;97427;-85
2022/08/12 14:53:01;;;;;;;2.40;0.95;;;31.90;42.80;;;30.73;27.80;99974.91;10272663;28;97830;-84
2022/08/12 14:58:25;;;;;;;2.70;1.00;;;31.80;43.00;;;30.82;27.09;99978.53;10288682;28;96740;-84
2022/08/12 15:03:30;;;;;;;5.15;1.50;;;32.10;42.60;;;30.78;27.69;99974.81;10263981;28;96871;-84
2022/08/12 15:08:53;;;;;;;2.30;1.20;;;32.10;42.70;;;30.51;28.11;99961.91;10303203;28;98335;-84
2022/08/12 15:13:58;;;;;;;1.48;1.13;;;32.00;42.60;;;30.60;28.26;99960.09;10267276;28;96677;-85
2022/08/12 15:19:02;;;;;;;1.95;1.13;;;32.00;43.00;;;31.02;28.07;99955.34;10285460;28;97513;-87
2022/08/12 15:24:25;;;;;;;2.67;1.08;;;32.30;43.10;;;31.12;27.35;99955.91;10250085;28;97118;-86
2022/08/12 15:29:28;;;;;;;3.67;1.10;;;32.60;42.60;;;31.02;27.76;99956.16;10249108;28;96783;-86
2022/08/12 15:34:32;;;;;;;1.92;1.02;;;32.50;42.70;;;30.68;28.30;99962.13;10300135;28;96685;-85
2022/08/12 15:39:35;;;;;;;5.07;1.40;;;32.20;42.90;;;30.26;29.00;99946.78;10305490;28;96644;-86
2022/08/12 15:44:39;;;;;;;6.47;1.67;;;31.80;43.50;;;30.32;29.41;99948.31;10288210;28;98314;-86
2022/08/12 15:49:45;;;;;;;2.95;1.25;;;31.70;44.00;;;30.33;29.39;99938.97;10236598;28;96804;-86
2022/08/12 15:55:03;;;;;;;1.47;1.00;;;31.70;44.00;;;30.19;29.45;99938.19;10294567;28;97594;-84
2022/08/12 16:00:15;;;;;;;3.35;1.02;;;31.60;44.00;;;30.12;29.32;99938.59;10295061;28;96781;-86
2022/08/12 16:05:41;;;;;;;3.08;1.27;;;31.50;43.90;;;29.87;29.24;99942.59;10264186;28;98445;-85
2022/08/12 16:11:08;;;;;;;1.60;1.30;;;31.30;43.90;;;29.79;29.78;99948.75;10282909;28;97508;-85
2022/08/12 16:16:20;;;;;;;3.22;1.10;;;31.20;44.00;;;29.84;29.07;99945.91;10274314;28;98353;-86
2022/08/12 16:21:27;;;;;;;1.92;0.90;;;31.20;43.60;;;29.74;28.91;99935.94;10278091;28;98525;-87
2022/08/12 16:26:50;;;;;;;2.60;0.88;;;31.10;43.50;;;29.45;29.42;99936.19;10291695;28;96576;-87
2022/08/12 16:31:57;;;;;;;12.40;1.85;;;30.80;43.80;;;29.31;29.39;99935.31;10287115;28;97409;-87
2022/08/12 16:37:12;;;;;;;150.18;11.02;;;30.60;44.00;;;28.94;29.87;99927.94;10260955;28;96466;-88
2022/08/12 16:42:19;;;;;;;4.15;1.15;;;30.40;44.20;;;28.76;30.52;99926.81;10274704;28;96709;-88
2022/08/12 16:47:22;;;;;;;4.72;1.40;;;30.10;44.90;;;28.51;30.75;99923.31;10295741;28;97706;-83
2022/08/12 16:52:29;;;;;;;2.30;0.90;;;29.80;45.10;;;28.32;31.29;99918.94;10267316;28;96484;-83
2022/08/12 16:57:32;;;;;;;3.97;0.93;;;29.60;45.40;;;28.11;31.45;99912.84;10292330;28;96952;-83
2022/08/12 17:02:38;;;;;;;3.60;1.27;;;29.40;45.80;;;27.92;31.90;99908.16;10295207;28;98409;-84
2022/08/12 17:07:43;;;;;;;2.42;1.02;;;29.10;46.10;;;27.75;32.45;99902.31;10318049;28;96698;-83
2022/08/12 17:12:53;;;;;;;2.55;1.35;;;28.90;46.50;;;27.58;33.05;99904.63;10277062;28;96609;-83
2022/08/12 17:17:57;;;;;;;3.42;1.10;;;28.80;46.80;;;27.39;33.00;99912.72;10275087;28;97795;-83
2022/08/12 17:23:22;;;;;;;4.57;1.67;;;28.50;47.00;;;27.20;33.36;99918.88;10281692;28;96598;-83
2022/08/12 17:28:26;;;;;;;4.65;1.48;;;28.30;47.40;;;26.95;34.36;99917.13;10280019;28;98312;-82
2022/08/12 17:33:31;;;;;;;2.05;1.40;;;28.10;47.90;;;26.73;34.54;99915.91;10274065;28;97049;-81
2022/08/12 17:38:37;;;;;;;2.90;1.40;;;27.90;48.10;;;26.48;34.86;99914.13;10277020;28;96586;-84
2022/08/12 17:43:43;;;;;;;5.85;1.10;;;27.60;48.40;;;26.28;35.20;99915.81;10292408;28;97654;-85
2022/08/12 17:49:02;;;;;;;3.35;1.40;;;27.40;48.60;;;26.11;35.28;99918.06;10276219;28;97631;-85
2022/08/12 17:54:25;;;;;;;3.10;0.90;;;27.20;48.80;;;25.88;35.65;99920.28;10277707;28;96745;-84
2022/08/12 17:59:29;;;;;;;4.32;1.45;;;27.00;49.10;;;25.74;35.61;99930.13;10271986;28;96622;-82
2022/08/12 18:04:50;;;;;;;2.13;1.25;;;26.90;49.30;;;25.55;36.00;99923.56;10275989;28;96747;-84
2022/08/12 18:10:08;;;;;;;4.95;1.20;;;26.70;49.30;;;25.38;36.18;99923.06;10278253;28;97053;-83
2022/08/12 18:15:18;;;;;;;4.60;1.33;;;26.50;49.60;;;25.21;36.90;99926.03;10282258;28;96910;-82
2022/08/12 18:20:41;;;;;;;3.87;1.00;;;26.40;50.10;;;25.03;37.33;99928.16;10294361;28;96609;-82
2022/08/12 18:31:22;;;;;;;3.58;1.60;;;26.00;50.90;;;24.59;37.99;99933.22;10294324;28;96740;-82
2022/08/12 18:36:28;;;;;;;3.92;1.17;;;25.80;51.10;;;24.39;38.41;99939.38;10288030;28;96678;-82
2022/08/12 18:41:34;;;;;;;4.65;1.70;;;25.60;51.10;;;24.23;38.24;99941.19;10266836;28;96860;-82
2022/08/12 18:46:53;;;;;;;10.00;1.50;;;25.40;51.10;;;24.15;38.21;99955.25;10259870;28;96647;-82
2022/08/12 18:52:01;;;;;;;2.25;1.25;;;25.30;51.00;;;24.06;38.42;99951.41;10294930;28;97224;-82
2022/08/12 18:57:07;;;;;;;3.63;1.10;;;25.30;51.10;;;24.00;38.45;99952.47;10272482;28;96740;-82
2022/08/12 19:02:35;;;;;;;3.35;1.20;;;25.20;51.10;;;23.92;38.37;99945.59;10262819;28;96559;-82
2022/08/12 19:07:52;;;;;;;2.47;1.20;;;25.10;51.20;;;23.83;38.90;99947.19;10275037;28;96894;-82
2022/08/12 19:18:35;;;;;;;2.28;1.30;;;24.90;51.50;;;23.66;38.75;99947.34;10270420;28;96706;-82
2022/08/12 19:23:42;;;;;;;1.55;1.08;;;24.80;51.60;;;23.55;39.33;99948.31;10249568;28;96455;-83
2022/08/12 19:28:48;;;;;;;3.25;1.30;;;24.70;52.00;;;23.40;39.76;99951.72;10279395;28;96592;-82
2022/08/12 19:33:51;;;;;;;4.00;1.40;;;24.60;52.30;;;23.28;40.00;99950.25;10262310;28;96694;-83
2022/08/12 19:39:16;;;;;;;2.28;1.48;;;24.40;52.60;;;23.14;39.88;99956.06;10290055;28;96795;-83
2022/08/12 19:44:36;;;;;;;5.93;1.58;;;24.20;52.70;;;23.03;40.12;99964.34;10277030;28;96690;-83
2022/08/12 19:49:52;;;;;;;4.50;1.23;;;24.20;52.90;;;22.92;40.30;99958.03;10270878;28;96661;-84
2022/08/12 19:54:57;;;;;;;2.22;1.30;;;24.10;53.00;;;22.84;40.39;99955.72;10291952;28;96709;-84
2022/08/12 20:00:04;;;;;;;5.68;1.20;;;24.00;53.00;;;22.77;40.74;99958.63;10268085;28;96764;-84
2022/08/12 20:05:08;;;;;;;1.77;1.13;;;24.00;53.30;;;22.64;41.01;99951.72;10279921;28;97884;-84
2022/08/12 20:10:33;;;;;;;6.63;3.25;;;23.90;53.50;;;22.47;41.62;99950.97;10292523;28;96501;-84
2022/08/12 20:15:39;;;;;;;3.03;1.83;;;23.70;54.10;;;22.31;42.23;99954.53;10270096;28;97266;-84
2022/08/12 20:20:47;;;;;;;6.72;4.85;;;23.50;54.40;;;22.16;42.23;99944.34;10280538;28;96653;-84
2022/08/12 20:25:50;;;;;;;3.33;1.85;;;23.30;54.60;;;22.03;42.26;99952.81;10284978;28;98502;-85
2022/08/12 20:31:10;;;;;;;2.75;1.52;;;23.20;54.60;;;21.94;42.22;99946.97;10276326;28;97156;-84
2022/08/12 20:36:16;;;;;;;1.58;1.00;;;23.10;54.60;;;21.87;42.67;99952.56;10273438;28;97126;-84
2022/08/12 20:41:40;;;;;;;4.05;1.20;;;23.00;54.90;;;21.70;43.70;99950.94;10278467;28;96438;-84
2022/08/12 20:46:44;;;;;;;2.97;1.17;;;22.90;55.50;;;21.60;43.86;99952.44;10290154;28;96761;-84
2022/08/12 20:51:47;;;;;;;3.00;1.15;;;22.80;55.90;;;21.51;44.33;99963.91;10290148;28;96696;-84
2022/08/12 20:56:58;;;;;;;2.70;1.58;;;22.70;56.20;;;21.38;44.73;99965.03;10286562;28;97506;-83
2022/08/12 21:02:04;;;;;;;5.30;2.40;;;22.60;56.60;;;21.26;45.16;99962.38;10290311;28;97669;-84
2022/08/12 21:07:08;;;;;;;5.07;3.22;;;22.50;57.00;;;21.10;45.18;99969.38;10276481;28;96694;-84
2022/08/12 21:12:23;;;;;;;7.18;3.20;;;22.40;57.40;;;20.99;45.84;99967.56;10291110;28;97616;-84
2022/08/12 21:17:36;;;;;;;7.68;2.75;;;22.20;57.80;;;20.88;46.68;99981.13;10273320;28;98430;-84
2022/08/12 21:22:59;;;;;;;6.07;2.58;;;22.10;58.20;;;20.69;47.68;99978.59;10288003;28;96718;-84
2022/08/12 21:28:05;;;;;;;2.80;1.90;;;22.00;58.90;;;20.56;47.77;99965.34;10292884;28;96958;-84
2022/08/12 21:33:09;;;;;;;3.70;1.85;;;21.80;59.20;;;20.45;48.60;99960.75;10311511;28;98743;-84
2022/08/12 21:38:18;;;;;;;;;;;21.70;59.80;;;20.39;49.26;99973.38;10282463;28;96676;-84
2022/08/12 21:43:25;;;;;;;2.38;1.50;;;21.60;60.80;;;20.27;48.46;99976.06;10264121;28;96528;-84
2022/08/12 21:48:40;;;;;;;1.65;1.25;;;21.50;59.50;;;20.26;48.49;99974.41;10285579;28;98111;-84
2022/08/12 21:53:50;;;;;;;2.97;1.58;;;21.50;59.60;;;20.27;48.37;99978.78;10293017;28;96808;-84
2022/08/12 21:59:14;;;;;;;2.15;1.42;;;21.50;59.70;;;20.20;48.72;99986.16;10293084;28;96639;-84
2022/08/12 22:09:38;;;;;;;1.65;1.33;;;21.40;59.90;;;20.03;48.78;99986.06;10286579;28;96826;-84
2022/08/12 22:14:48;;;;;;;1.77;1.20;;;21.30;60.10;;;19.93;49.03;99996.59;10291891;28;96668;-84
2022/08/12 22:19:51;;;;;;;2.88;1.38;;;21.20;60.40;;;19.80;49.78;99998.72;10283010;28;98371;-84
2022/08/12 22:24:54;;;;;;;2.05;1.63;;;21.10;61.00;;;19.69;50.68;100003.03;10326724;28;99057;-84
2022/08/12 22:35:32;;;;;;;4.10;1.60;;;20.90;62.20;;;19.39;51.69;100003.06;10259941;28;96651;-85
2022/08/12 22:47:35;;;;;;;2.88;1.60;;;20.70;63.30;;;19.19;52.45;100008.72;10298847;28;97722;-84
2022/08/12 22:51:58;;;;;;;2.13;1.33;;;20.40;63.40;;;19.08;51.96;100002.25;10289449;28;96643;-84
2022/08/12 22:57:10;;;;;;;1.67;1.30;;;20.30;63.30;;;19.12;52.01;100000.72;10290655;28;98145;-84
2022/08/12 23:02:16;;;;;;;2.70;1.60;;;20.30;63.30;;;19.23;51.91;99999.13;10273125;28;96603;-84
2022/08/12 23:07:31;;;;;;;2.80;1.83;;;20.40;63.30;;;19.32;52.04;99987.00;10293333;28;96630;-84
2022/08/12 23:18:17;;;;;;;2.92;2.05;;;20.70;63.50;;;19.63;51.87;99968.91;10289172;28;96791;-84
2022/08/12 23:23:20;;;;;;;3.03;2.00;;;20.80;63.40;;;19.71;52.09;99965.88;10266599;28;96695;-84
2022/08/12 23:33:54;;;;;;;4.78;2.45;;;21.00;63.60;;;19.86;52.03;99960.84;10312869;28;97282;-85
2022/08/12 23:39:10;;;;;;;2.35;1.85;;;21.10;63.60;;;19.94;52.06;99944.31;10265054;28;97322;-84
2022/08/12 23:44:37;;;;;;;2.97;2.60;;;21.20;63.60;;;20.06;51.95;99952.41;10265734;28;96533;-85
2022/08/12 23:49:43;;;;;;;3.80;2.63;;;21.30;63.60;;;20.20;52.15;99945.69;10273329;28;97631;-85